createdAt,value
2019-01-10T00:01:14.594Z,8.60
2019-01-10T00:03:44.218Z,8.63
2019-01-10T00:06:13.795Z,8.20
2019-01-10T00:08:43.279Z,8.93
2019-01-10T00:11:13.172Z,8.90
2019-01-10T00:13:42.710Z,8.53
2019-01-10T00:16:12.649Z,8.15
2019-01-10T00:18:42.214Z,8.43
2019-01-10T00:21:11.790Z,8.28
2019-01-10T00:23:41.286Z,7.58
2019-01-10T00:26:13.221Z,8.40
2019-01-10T00:28:42.772Z,7.85
2019-01-10T00:31:12.403Z,8.48
2019-01-10T00:33:41.963Z,7.65
2019-01-10T00:36:11.466Z,8.38
2019-01-10T00:38:41.069Z,8.75
2019-01-10T00:41:10.666Z,7.35
2019-01-10T00:43:40.131Z,8.10
2019-01-10T00:46:09.675Z,8.58
2019-01-10T00:48:39.154Z,7.80
2019-01-10T00:51:08.829Z,7.95
2019-01-10T00:53:38.656Z,7.45
2019-01-10T00:56:08.192Z,8.03
2019-01-10T00:58:37.710Z,7.22
2019-01-10T01:01:07.379Z,8.28
2019-01-10T01:03:36.856Z,8.25
2019-01-10T01:06:06.795Z,7.53
2019-01-10T01:08:36.246Z,7.85
2019-01-10T01:11:06.010Z,8.88
2019-01-10T01:13:35.484Z,8.23
2019-01-10T01:16:05.568Z,8.93
2019-01-10T01:18:35.045Z,8.50
2019-01-10T01:21:04.590Z,7.85
2019-01-10T01:23:34.104Z,8.35
2019-01-10T01:26:04.043Z,8.13
2019-01-10T01:28:33.623Z,8.30
2019-01-10T01:31:03.143Z,8.40
2019-01-10T01:33:32.999Z,9.85
2019-01-10T01:36:02.482Z,8.90
2019-01-10T01:38:32.227Z,8.78
2019-01-10T01:41:01.769Z,8.45
2019-01-10T01:43:31.311Z,8.55
2019-01-10T01:46:01.145Z,8.33
2019-01-10T01:48:30.647Z,9.20
2019-01-10T01:51:00.262Z,7.47
2019-01-10T01:53:29.836Z,8.10
2019-01-10T01:55:59.357Z,8.53
2019-01-10T01:58:29.073Z,8.20
2019-01-10T02:00:58.526Z,8.85
2019-01-10T02:03:28.014Z,8.33
2019-01-10T02:05:57.664Z,8.60
2019-01-10T02:08:27.155Z,9.13
2019-01-10T02:10:56.703Z,9.00
2019-01-10T02:13:26.390Z,8.68
2019-01-10T02:15:55.922Z,8.70
2019-01-10T02:18:25.467Z,9.90
2019-01-10T02:20:54.958Z,10.55
2019-01-10T02:23:24.479Z,9.48
2019-01-10T02:25:54.202Z,9.70
2019-01-10T02:28:23.699Z,9.68
2019-01-10T02:30:53.205Z,9.90
2019-01-10T02:33:22.886Z,9.10
2019-01-10T02:35:52.385Z,9.75
2019-01-10T02:38:21.963Z,9.88
2019-01-10T02:40:51.599Z,9.33
2019-01-10T02:43:26.351Z,9.08
2019-01-10T02:45:52.458Z,9.30
2019-01-10T02:48:22.041Z,10.05
2019-01-10T02:51:09.579Z,10.53
2019-01-10T02:53:39.295Z,10.25
2019-01-10T02:56:08.669Z,11.90
2019-01-10T02:58:38.073Z,11.28
2019-01-10T03:01:07.625Z,9.85
2019-01-10T03:03:37.203Z,10.25
2019-01-10T03:06:06.842Z,10.15
2019-01-10T03:08:36.444Z,9.28
2019-01-10T03:11:06.126Z,10.30
2019-01-10T03:13:36.816Z,10.20
2019-01-10T03:16:06.613Z,10.05
2019-01-10T03:18:36.657Z,10.40
2019-01-10T03:21:06.209Z,10.80
2019-01-10T03:23:35.703Z,10.58
2019-01-10T03:26:05.376Z,11.35
2019-01-10T03:28:34.898Z,11.65
2019-01-10T03:31:04.612Z,12.43
2019-01-10T03:33:34.300Z,12.70
2019-01-10T03:36:03.896Z,12.00
2019-01-10T03:38:33.451Z,13.40
2019-01-10T03:41:03.140Z,12.18
2019-01-10T03:43:33.632Z,11.53
2019-01-10T03:46:03.133Z,11.05
2019-01-10T03:48:32.789Z,11.97
2019-01-10T03:51:02.309Z,11.30
2019-01-10T03:53:31.829Z,11.55
2019-01-10T03:56:01.420Z,11.50
2019-01-10T03:58:30.905Z,11.53
2019-01-10T04:01:00.432Z,11.60
2019-01-10T04:03:29.906Z,10.98
2019-01-10T04:05:59.384Z,10.82
2019-01-10T04:08:28.851Z,11.25
2019-01-10T04:14:57.592Z,11.40
2019-01-10T04:17:27.048Z,12.03
2019-01-10T04:19:56.612Z,11.73
2019-01-10T04:22:26.288Z,11.28
2019-01-10T04:24:55.868Z,11.93
2019-01-10T04:27:25.272Z,12.33
2019-01-10T04:29:54.867Z,11.68
2019-01-10T04:32:24.405Z,12.10
2019-01-10T04:34:53.880Z,11.73
2019-01-10T04:37:24.328Z,11.95
2019-01-10T04:39:53.866Z,12.37
2019-01-10T04:42:23.356Z,10.80
2019-01-10T04:44:53.042Z,10.20
2019-01-10T04:47:22.522Z,10.90
2019-01-10T04:49:52.028Z,11.88
2019-01-10T04:52:22.790Z,11.30
2019-01-10T04:54:56.021Z,11.57
2019-01-10T04:57:23.537Z,12.37
2019-01-10T04:59:53.040Z,11.05
2019-01-10T05:02:22.644Z,11.28
2019-01-10T05:04:52.144Z,11.68
2019-01-10T05:07:21.698Z,12.82
2019-01-10T05:09:51.193Z,12.03
2019-01-10T05:12:20.805Z,12.20
2019-01-10T05:14:50.244Z,13.85
2019-01-10T05:17:20.135Z,13.48
2019-01-10T05:19:49.619Z,11.35
2019-01-10T05:22:19.444Z,11.68
2019-01-10T05:24:49.033Z,11.53
2019-01-10T05:27:18.812Z,12.15
2019-01-10T05:29:48.506Z,11.08
2019-01-10T05:32:18.149Z,11.63
2019-01-10T05:34:47.631Z,12.23
2019-01-10T05:37:17.558Z,13.40
2019-01-10T05:39:47.923Z,13.13
2019-01-10T05:42:17.652Z,12.73
2019-01-10T05:44:47.256Z,13.83
2019-01-10T05:47:16.773Z,12.10
2019-01-10T05:49:46.230Z,12.88
2019-01-10T05:52:15.830Z,13.68
2019-01-10T05:54:45.307Z,12.93
2019-01-10T05:57:14.857Z,12.85
2019-01-10T05:59:44.389Z,13.45
2019-01-10T06:02:13.877Z,13.18
2019-01-10T06:04:43.373Z,13.83
2019-01-10T06:07:13.126Z,13.05
2019-01-10T06:09:42.615Z,12.43
2019-01-10T06:12:12.073Z,13.53
2019-01-10T06:14:41.733Z,18.42
2019-01-10T06:17:11.174Z,14.25
2019-01-10T06:19:40.647Z,13.62
2019-01-10T06:22:10.195Z,12.68
2019-01-10T06:24:39.742Z,11.95
2019-01-10T06:27:09.158Z,10.88
2019-01-10T06:29:38.732Z,12.18
2019-01-10T06:32:08.216Z,13.43
2019-01-10T06:34:37.739Z,11.78
2019-01-10T06:37:07.189Z,12.15
2019-01-10T06:39:36.824Z,11.43
2019-01-10T06:42:06.355Z,10.95
2019-01-10T06:44:44.323Z,10.60
2019-01-10T06:47:06.983Z,11.30
2019-01-10T06:49:36.548Z,10.82
2019-01-10T06:52:06.032Z,9.73
2019-01-10T06:54:35.545Z,11.00
2019-01-10T06:57:05.038Z,11.25
2019-01-10T06:59:34.574Z,12.10
2019-01-10T07:02:04.076Z,11.40
2019-01-10T07:04:33.522Z,10.60
2019-01-10T07:07:03.141Z,10.70
2019-01-10T07:09:32.663Z,11.57
2019-01-10T07:12:02.120Z,10.88
2019-01-10T07:14:31.805Z,11.88
2019-01-10T07:17:04.415Z,10.90
2019-01-10T07:19:47.014Z,10.93
2019-01-10T07:22:17.999Z,10.53
2019-01-10T07:24:55.134Z,10.20
2019-01-10T07:27:24.644Z,9.63
2019-01-10T07:30:00.323Z,10.05
2019-01-10T07:32:29.952Z,11.20
2019-01-10T07:35:10.499Z,12.23
2019-01-10T07:37:40.060Z,11.05
2019-01-10T07:40:15.264Z,11.30
2019-01-10T07:42:44.864Z,11.90
2019-01-10T07:45:20.215Z,12.40
2019-01-10T07:47:52.418Z,12.25
2019-01-10T07:50:35.962Z,11.63
2019-01-10T07:53:07.599Z,12.60
2019-01-10T07:55:37.345Z,13.68
2019-01-10T07:58:06.967Z,12.20
2019-01-10T08:00:36.812Z,11.50
2019-01-10T08:03:08.732Z,10.68
2019-01-10T08:05:38.235Z,12.40
2019-01-10T08:08:08.843Z,11.78
2019-01-10T08:10:38.764Z,11.88
2019-01-10T08:13:08.534Z,12.18
2019-01-10T08:15:38.042Z,12.98
2019-01-10T08:18:07.549Z,12.30
2019-01-10T08:20:37.201Z,13.00
2019-01-10T08:23:06.705Z,12.55
2019-01-10T08:25:36.267Z,12.93
2019-01-10T08:28:05.975Z,13.00
2019-01-10T08:30:35.523Z,13.30
2019-01-10T08:33:05.435Z,12.45
2019-01-10T08:35:35.051Z,12.07
2019-01-10T08:38:04.464Z,13.65
2019-01-10T08:40:34.137Z,12.73
2019-01-10T08:43:03.569Z,15.18
2019-01-10T08:45:33.177Z,12.80
2019-01-10T08:48:02.693Z,17.00
2019-01-10T08:50:32.168Z,13.75
2019-01-10T08:53:01.656Z,15.70
2019-01-10T08:55:31.302Z,15.35
2019-01-10T08:58:00.791Z,12.65
2019-01-10T09:00:30.311Z,10.88
2019-01-10T09:02:59.850Z,12.30
2019-01-10T09:05:29.311Z,13.58
2019-01-10T09:07:58.792Z,15.65
2019-01-10T09:10:35.163Z,12.70
2019-01-10T09:13:05.576Z,13.68
2019-01-10T09:15:35.120Z,14.30
2019-01-10T09:18:05.523Z,12.15
2019-01-10T09:20:35.332Z,13.13
2019-01-10T09:23:04.872Z,13.50
2019-01-10T09:25:34.633Z,13.22
2019-01-10T09:28:04.137Z,14.50
2019-01-10T09:30:33.628Z,13.75
2019-01-10T09:33:03.260Z,12.65
2019-01-10T09:35:32.752Z,11.97
2019-01-10T09:38:02.223Z,11.53
2019-01-10T09:40:32.088Z,10.50
2019-01-10T09:43:01.566Z,11.55
2019-01-10T09:45:31.087Z,11.73
2019-01-10T09:48:03.708Z,10.28
2019-01-10T09:50:33.182Z,9.93
2019-01-10T09:53:02.635Z,11.15
2019-01-10T09:55:32.246Z,9.40
2019-01-10T09:58:01.815Z,9.00
2019-01-10T10:00:31.722Z,9.30
2019-01-10T10:03:01.263Z,8.83
2019-01-10T10:05:30.873Z,8.80
2019-01-10T10:08:00.336Z,8.13
2019-01-10T10:10:29.815Z,9.08
2019-01-10T10:12:59.423Z,8.40
2019-01-10T10:15:28.894Z,8.80
2019-01-10T10:17:58.479Z,8.53
2019-01-10T10:20:28.227Z,8.03
2019-01-10T10:22:57.708Z,9.13
2019-01-10T10:25:27.178Z,8.58
2019-01-10T10:27:57.080Z,9.08
2019-01-10T10:30:26.475Z,8.10
2019-01-10T10:32:56.110Z,8.80
2019-01-10T10:35:25.739Z,8.75
2019-01-10T10:37:55.224Z,9.05
2019-01-10T10:40:24.744Z,10.25
2019-01-10T10:42:54.577Z,9.55
2019-01-10T10:45:24.577Z,9.68
2019-01-10T10:47:54.035Z,11.03
2019-01-10T10:50:32.714Z,10.40
2019-01-10T10:53:04.296Z,8.90
2019-01-10T10:55:33.853Z,9.50
2019-01-10T10:58:03.375Z,11.05
2019-01-10T11:00:32.967Z,11.05
2019-01-10T11:03:02.613Z,9.45
2019-01-10T11:05:32.051Z,11.12
2019-01-10T11:08:01.492Z,10.65
2019-01-10T11:10:31.737Z,10.13
2019-01-10T11:13:01.776Z,9.60
2019-01-10T11:15:31.399Z,10.48
2019-01-10T11:18:00.883Z,11.03
2019-01-10T11:20:30.411Z,11.20
2019-01-10T11:22:59.881Z,11.35
2019-01-10T11:25:30.507Z,11.55
2019-01-10T11:28:00.187Z,12.15
2019-01-10T11:30:29.855Z,11.50
2019-01-10T11:32:59.328Z,12.80
2019-01-10T11:35:28.781Z,10.70
2019-01-10T11:37:58.371Z,11.45
2019-01-10T11:40:27.819Z,12.07
2019-01-10T11:42:57.355Z,12.53
2019-01-10T11:45:28.114Z,13.15
2019-01-10T11:47:57.602Z,14.45
2019-01-10T11:50:27.060Z,14.80
2019-01-10T11:52:56.680Z,12.70
2019-01-10T11:55:26.177Z,11.93
2019-01-10T11:57:57.448Z,12.10
2019-01-10T12:00:29.664Z,12.18
2019-01-10T12:03:00.008Z,13.00
2019-01-10T12:05:29.790Z,14.68
2019-01-10T12:07:59.323Z,12.07
2019-01-10T12:10:28.987Z,13.13
2019-01-10T12:12:58.467Z,12.90
2019-01-10T12:15:27.986Z,10.85
2019-01-10T12:17:57.494Z,11.03
2019-01-10T12:20:27.012Z,11.80
2019-01-10T12:22:56.634Z,11.80
2019-01-10T12:25:26.064Z,11.70
2019-01-10T12:27:55.599Z,10.08
2019-01-10T12:30:26.458Z,12.43
2019-01-10T12:32:56.048Z,11.83
2019-01-10T12:35:26.088Z,12.10
2019-01-10T12:37:55.616Z,10.78
2019-01-10T12:40:25.049Z,10.98
2019-01-10T12:42:54.691Z,10.70
2019-01-10T12:45:24.211Z,9.88
2019-01-10T12:47:53.707Z,11.33
2019-01-10T12:50:35.971Z,11.78
2019-01-10T12:53:09.329Z,9.53
2019-01-10T12:55:39.523Z,10.50
2019-01-10T12:58:09.478Z,12.00
2019-01-10T13:00:39.344Z,11.53
2019-01-10T13:03:09.017Z,12.55
2019-01-10T13:05:38.463Z,11.78
2019-01-10T13:08:07.968Z,9.88
2019-01-10T13:10:37.656Z,10.25
2019-01-10T13:13:07.200Z,11.18
2019-01-10T13:15:36.726Z,12.18
2019-01-10T13:18:06.355Z,10.25
2019-01-10T13:20:35.968Z,10.55
2019-01-10T13:23:05.625Z,12.07
2019-01-10T13:25:35.151Z,12.40
2019-01-10T13:28:04.653Z,10.60
2019-01-10T13:30:34.575Z,14.05
2019-01-10T13:33:04.072Z,13.30
2019-01-10T13:35:33.730Z,14.45
2019-01-10T13:38:03.292Z,11.45
2019-01-10T13:40:32.793Z,11.45
2019-01-10T13:43:02.452Z,10.10
2019-01-10T13:45:31.962Z,11.88
2019-01-10T13:48:01.716Z,11.55
2019-01-10T13:50:32.140Z,11.75
2019-01-10T13:53:01.715Z,12.20
2019-01-10T13:55:31.233Z,11.63
2019-01-10T13:58:00.741Z,11.00
2019-01-10T14:00:35.724Z,9.45
2019-01-10T14:03:04.899Z,9.28
2019-01-10T14:05:34.465Z,8.65
2019-01-10T14:08:04.079Z,7.00
2019-01-10T14:10:33.759Z,10.63
2019-01-10T14:13:03.363Z,13.10
2019-01-10T14:15:34.988Z,10.43
2019-01-10T14:18:05.419Z,8.18
2019-01-10T14:20:35.211Z,8.85
2019-01-10T14:23:04.931Z,8.63
2019-01-10T14:25:34.483Z,8.38
2019-01-10T14:28:04.499Z,8.98
2019-01-10T14:30:37.610Z,9.45
2019-01-10T14:33:09.594Z,9.90
2019-01-10T14:35:39.149Z,8.33
2019-01-10T14:38:11.909Z,8.88
2019-01-10T14:40:41.546Z,7.80
2019-01-10T14:43:11.186Z,9.70
2019-01-10T14:45:42.046Z,10.30
2019-01-10T14:48:11.590Z,8.50
2019-01-10T14:50:41.154Z,9.55
2019-01-10T14:53:10.759Z,9.08
2019-01-10T14:55:40.315Z,8.30
2019-01-10T14:58:10.285Z,8.75
2019-01-10T15:00:39.889Z,8.73
2019-01-10T15:03:09.295Z,8.90
2019-01-10T15:05:38.828Z,8.48
2019-01-10T15:08:08.142Z,8.63
2019-01-10T15:10:37.534Z,10.05
2019-01-10T15:13:06.964Z,10.18
2019-01-10T15:15:36.341Z,10.65
2019-01-10T15:18:06.173Z,11.20
2019-01-10T15:20:35.562Z,9.58
2019-01-10T15:23:04.949Z,8.73
2019-01-10T15:25:34.304Z,9.10
2019-01-10T15:28:03.864Z,10.58
2019-01-10T15:30:33.218Z,10.03
2019-01-10T15:33:02.577Z,10.55
2019-01-10T15:35:31.960Z,11.57
2019-01-10T15:38:01.295Z,11.10
2019-01-10T15:40:33.989Z,10.00
2019-01-10T15:43:05.107Z,11.35
2019-01-10T15:45:34.442Z,12.05
2019-01-10T15:48:04.131Z,12.98
2019-01-10T15:50:33.550Z,12.45
2019-01-10T15:53:02.914Z,11.45
2019-01-10T15:55:33.034Z,12.80
2019-01-10T15:58:02.416Z,11.88
2019-01-10T16:00:31.879Z,11.53
2019-01-10T16:03:01.293Z,12.40
2019-01-10T16:05:30.955Z,14.30
2019-01-10T16:08:00.342Z,14.28
2019-01-10T16:10:29.726Z,13.65
2019-01-10T16:12:59.078Z,12.03
2019-01-10T16:15:28.454Z,12.13
2019-01-10T16:17:58.068Z,11.00
2019-01-10T16:20:27.444Z,10.93
2019-01-10T16:22:56.815Z,10.45
2019-01-10T16:25:26.208Z,10.50
2019-01-10T16:27:57.774Z,11.70
2019-01-10T16:30:29.268Z,10.25
2019-01-10T16:32:58.632Z,9.60
2019-01-10T16:35:28.361Z,10.05
2019-01-10T16:37:57.757Z,10.43
2019-01-10T16:40:27.204Z,10.08
2019-01-10T16:42:56.714Z,9.15
2019-01-10T16:45:29.014Z,10.70
2019-01-10T16:47:58.428Z,13.88
2019-01-10T16:50:27.762Z,18.27
2019-01-10T16:52:57.179Z,51.92
2019-01-10T16:56:20.302Z,40.12
2019-01-10T16:58:49.883Z,28.20
2019-01-10T17:01:19.282Z,13.88
2019-01-10T17:03:48.785Z,12.45
2019-01-10T17:06:18.112Z,16.17
2019-01-10T17:08:47.555Z,11.43
2019-01-10T17:11:16.963Z,12.70
2019-01-10T17:14:04.335Z,10.50
2019-01-10T17:16:34.833Z,12.90
2019-01-10T17:19:04.337Z,13.18
2019-01-10T17:21:33.767Z,12.05
2019-01-10T17:24:03.128Z,12.53
2019-01-10T17:26:32.720Z,12.47
2019-01-10T17:29:02.146Z,12.35
2019-01-10T17:31:31.561Z,22.25
2019-01-10T17:34:00.984Z,16.93
2019-01-10T17:36:30.362Z,15.48
2019-01-10T17:38:59.834Z,14.93
2019-01-10T17:41:29.335Z,13.20
2019-01-10T17:43:58.792Z,17.75
2019-01-10T17:46:28.165Z,15.55
2019-01-10T17:48:57.792Z,20.35
2019-01-10T17:51:27.175Z,15.80
2019-01-10T17:53:56.639Z,13.03
2019-01-10T17:56:26.040Z,15.35
2019-01-10T17:58:55.637Z,15.60
2019-01-10T18:01:25.195Z,16.40
2019-01-10T18:04:12.563Z,30.97
2019-01-10T18:06:42.020Z,20.17
2019-01-10T18:09:11.555Z,12.50
2019-01-10T18:11:41.335Z,13.83
2019-01-10T18:14:28.492Z,19.87
2019-01-10T18:16:58.220Z,23.83
2019-01-10T18:19:27.627Z,22.10
2019-01-10T18:21:57.243Z,21.00
2019-01-10T18:24:26.767Z,14.90
2019-01-10T18:26:56.109Z,21.05
2019-01-10T18:29:25.566Z,18.10
2019-01-10T18:31:55.017Z,16.80
2019-01-10T18:34:25.083Z,13.55
2019-01-10T18:36:54.626Z,12.90
2019-01-10T18:39:24.089Z,17.65
2019-01-10T18:41:53.566Z,17.87
2019-01-10T18:44:23.039Z,23.32
2019-01-10T18:46:52.422Z,18.75
2019-01-10T18:49:22.015Z,12.58
2019-01-10T18:51:51.391Z,12.35
2019-01-10T18:54:20.780Z,13.85
2019-01-10T18:56:52.239Z,13.72
2019-01-10T18:59:21.899Z,13.40
2019-01-10T19:01:51.327Z,12.50
2019-01-10T19:04:20.820Z,14.35
2019-01-10T19:06:52.378Z,13.13
2019-01-10T19:09:21.964Z,12.43
2019-01-10T19:11:51.592Z,12.03
2019-01-10T19:14:21.063Z,13.78
2019-01-10T19:16:50.666Z,14.43
2019-01-10T19:19:38.112Z,13.30
2019-01-10T19:22:07.547Z,13.00
2019-01-10T19:24:37.164Z,18.52
2019-01-10T19:27:06.634Z,15.30
2019-01-10T19:29:36.113Z,14.25
2019-01-10T19:32:05.954Z,13.50
2019-01-10T19:34:35.622Z,14.05
2019-01-10T19:37:05.253Z,15.30
2019-01-10T19:39:34.807Z,12.80
2019-01-10T19:42:04.211Z,20.00
2019-01-10T19:44:35.695Z,13.38
2019-01-10T19:47:05.381Z,13.13
2019-01-10T19:49:34.857Z,13.30
2019-01-10T19:52:04.383Z,12.40
2019-01-10T19:54:33.891Z,11.70
2019-01-10T19:57:03.465Z,14.60
2019-01-10T19:59:32.877Z,11.55
2019-01-10T20:02:02.563Z,14.53
2019-01-10T20:04:31.971Z,15.38
2019-01-10T20:07:01.382Z,11.90
2019-01-10T20:09:30.893Z,10.90
2019-01-10T20:12:00.400Z,12.73
2019-01-10T20:14:29.785Z,12.63
2019-01-10T20:16:59.183Z,12.30
2019-01-10T20:19:28.634Z,12.23
2019-01-10T20:21:58.328Z,13.10
2019-01-10T20:24:27.784Z,13.03
2019-01-10T20:26:57.707Z,13.50
2019-01-10T20:29:27.228Z,12.73
2019-01-10T20:31:56.626Z,14.63
2019-01-10T20:34:26.538Z,14.10
2019-01-10T20:36:56.443Z,18.82
2019-01-10T20:39:25.990Z,17.90
2019-01-10T20:42:01.658Z,18.40
2019-01-10T20:44:26.679Z,22.05
2019-01-10T20:46:58.340Z,20.55
2019-01-10T20:49:27.726Z,17.00
2019-01-10T20:51:57.206Z,13.35
2019-01-10T20:54:26.763Z,10.53
2019-01-10T20:56:56.196Z,11.78
2019-01-10T20:59:25.676Z,12.13
2019-01-10T21:01:55.469Z,12.03
2019-01-10T21:04:25.723Z,12.05
2019-01-10T21:06:55.120Z,10.68
2019-01-10T21:09:24.521Z,12.40
2019-01-10T21:11:53.923Z,10.75
2019-01-10T21:14:23.683Z,10.95
2019-01-10T21:16:53.050Z,12.73
2019-01-10T21:19:23.462Z,13.20
2019-01-10T21:21:53.240Z,12.58
2019-01-10T21:24:22.638Z,12.40
2019-01-10T21:26:52.104Z,11.48
2019-01-10T21:29:25.066Z,11.60
2019-01-10T21:31:54.510Z,12.68
2019-01-10T21:34:23.866Z,12.07
2019-01-10T21:36:53.476Z,13.55
2019-01-10T21:39:22.840Z,11.75
2019-01-10T21:41:52.208Z,10.30
2019-01-10T21:44:21.531Z,12.00
2019-01-10T21:46:50.948Z,12.10
2019-01-10T21:49:20.499Z,12.13
2019-01-10T21:51:50.484Z,11.90
2019-01-10T21:54:19.923Z,12.80
2019-01-10T21:56:49.207Z,12.53
2019-01-10T21:59:18.601Z,11.57
2019-01-10T22:01:47.950Z,11.38
2019-01-10T22:04:17.355Z,11.55
2019-01-10T22:06:47.121Z,11.53
2019-01-10T22:09:16.523Z,11.50
2019-01-10T22:11:45.860Z,11.48
2019-01-10T22:14:15.321Z,12.05
2019-01-10T22:16:44.791Z,12.23
2019-01-10T22:19:16.703Z,12.68
2019-01-10T22:21:45.251Z,12.07
2019-01-10T22:24:14.598Z,12.50
2019-01-10T22:26:43.991Z,12.07
2019-01-10T22:29:13.314Z,12.13
2019-01-10T22:31:42.934Z,12.23
2019-01-10T22:34:12.370Z,13.45
2019-01-10T22:36:41.633Z,13.25
2019-01-10T22:39:10.957Z,14.05
2019-01-10T22:41:40.255Z,13.70
2019-01-10T22:44:09.614Z,13.72
2019-01-10T22:46:38.966Z,12.75
2019-01-10T22:49:08.602Z,12.50
2019-01-10T22:51:38.016Z,12.85
2019-01-10T22:54:07.301Z,13.55
2019-01-10T22:56:36.658Z,12.65
2019-01-10T22:59:06.007Z,12.95
2019-01-10T23:01:50.604Z,13.70
2019-01-10T23:04:32.191Z,14.60
2019-01-10T23:07:01.736Z,13.18
2019-01-10T23:09:31.217Z,12.85
2019-01-10T23:12:00.707Z,13.53
2019-01-10T23:14:30.026Z,13.53
2019-01-10T23:16:59.388Z,12.58
2019-01-10T23:19:28.766Z,13.48
2019-01-10T23:22:08.668Z,13.55
2019-01-10T23:24:37.980Z,14.15
2019-01-10T23:27:07.804Z,13.30
2019-01-10T23:29:37.096Z,14.20
2019-01-10T23:32:11.918Z,13.03
2019-01-10T23:34:50.574Z,14.07
2019-01-10T23:37:24.212Z,13.15
2019-01-10T23:39:54.630Z,13.30
2019-01-10T23:42:23.954Z,12.95
2019-01-10T23:44:53.290Z,14.50
2019-01-10T23:47:22.628Z,13.93
2019-01-10T23:49:51.950Z,12.93
2019-01-10T23:52:21.454Z,14.15
2019-01-10T23:54:50.786Z,13.80
2019-01-10T23:57:20.129Z,15.00
2019-01-10T23:59:49.450Z,13.55
